Hood River, Oregon
Current Conditions -  °F | °C
As of 7:39 PM on Tuesday 25 Nov 2014 (Local Time) from K4S2 Reporting Station
Moderate Rain Moderate Rain  
Wind Chill: 59°   Ceiling: 4300
Heat Index: 59°   Visibility: 10mi
Dew Point: 50°   Wind: 3mph
Humidity: 72%   Direction: 310°NW
Pressure: 30.23"   Gusts: 22mph
Location:  45.71°N, 121.52°W
Report Text: K4S2 260339Z AUTO 31003G19KT 10SM RA BKN043 OVC049 15/10 A3023 RMK AO2 SLP252 T01500100
Loading
Personal Weather Stations






























Interactive Weather Map New forecast layout! Learn more

10-Day Weather Forecast

Advertisements
Track Severe Weather on mobile